createdAt,value
2018-01-15T00:02:24.176Z,86.35
2018-01-15T00:08:28.200Z,85.98
2018-01-15T00:14:31.781Z,86.04
2018-01-15T00:20:35.246Z,86.34
2018-01-15T00:26:38.729Z,86.67
2018-01-15T00:32:42.962Z,86.32
2018-01-15T00:38:46.450Z,86.45
2018-01-15T00:44:49.955Z,86.67
2018-01-15T00:50:53.417Z,86.63
2018-01-15T00:56:56.906Z,86.51
2018-01-15T01:03:01.447Z,86.67
2018-01-15T01:09:05.127Z,85.87
2018-01-15T01:15:08.597Z,85.11
2018-01-15T01:21:13.646Z,85.11
2018-01-15T01:27:17.275Z,84.76
2018-01-15T01:33:20.713Z,85.38
2018-01-15T01:39:25.017Z,84.95
2018-01-15T01:45:28.622Z,85.68
2018-01-15T01:51:32.107Z,86.04
2018-01-15T01:57:35.592Z,86.01
2018-01-15T02:03:39.069Z,85.70
2018-01-15T02:09:42.696Z,85.35
2018-01-15T02:15:46.176Z,84.67
2018-01-15T02:21:49.658Z,83.93
2018-01-15T02:27:53.987Z,84.20
2018-01-15T02:33:57.682Z,83.62
2018-01-15T02:40:01.985Z,83.16
2018-01-15T02:46:05.458Z,82.50
2018-01-15T02:52:08.970Z,82.77
2018-01-15T02:58:13.217Z,82.36
2018-01-15T03:04:16.722Z,83.33
2018-01-15T03:10:20.181Z,83.18
2018-01-15T03:16:24.154Z,84.25
2018-01-15T03:22:27.916Z,83.81
2018-01-15T03:28:31.577Z,83.78
2018-01-15T03:34:35.359Z,83.89
2018-01-15T03:40:38.910Z,84.31
2018-01-15T03:46:42.389Z,84.51
2018-01-15T03:52:45.867Z,84.06
2018-01-15T03:58:49.318Z,84.30
2018-01-15T04:04:53.061Z,84.97
2018-01-15T04:10:57.537Z,84.49
2018-01-15T04:17:01.787Z,84.55
2018-01-15T04:23:05.250Z,84.74
2018-01-15T04:29:08.741Z,85.15
2018-01-15T04:35:12.240Z,85.15
2018-01-15T04:41:15.704Z,85.51
2018-01-15T04:47:19.277Z,85.61
2018-01-15T04:53:23.634Z,86.10
2018-01-15T04:59:27.254Z,86.46
2018-01-15T05:05:30.769Z,86.48
2018-01-15T05:11:35.135Z,86.99
2018-01-15T05:17:39.481Z,86.58
2018-01-15T05:23:42.950Z,87.05
2018-01-15T05:29:46.464Z,87.11
2018-01-15T05:35:50.066Z,87.08
2018-01-15T05:41:53.840Z,87.33
2018-01-15T05:47:57.555Z,87.11
2018-01-15T05:54:01.162Z,87.49
2018-01-15T06:00:04.687Z,87.33
2018-01-15T06:06:08.980Z,87.12
2018-01-15T06:12:12.551Z,86.88
2018-01-15T06:18:16.053Z,86.75
2018-01-15T06:24:19.576Z,86.77
2018-01-15T06:30:23.976Z,86.60
2018-01-15T06:36:27.525Z,86.17
2018-01-15T06:42:31.079Z,85.57
2018-01-15T06:48:34.574Z,84.91
2018-01-15T06:54:38.042Z,83.68
2018-01-15T07:00:42.481Z,82.86
2018-01-15T07:06:45.949Z,82.88
2018-01-15T07:12:49.554Z,82.68
2018-01-15T07:18:53.058Z,82.50
2018-01-15T07:24:56.886Z,81.93
2018-01-15T07:31:00.432Z,81.76
2018-01-15T07:37:03.912Z,81.96
2018-01-15T07:43:07.387Z,82.18
2018-01-15T07:49:11.159Z,81.49
2018-01-15T07:55:15.392Z,81.57
2018-01-15T08:01:18.882Z,81.62
2018-01-15T08:07:23.188Z,81.05
2018-01-15T08:13:27.115Z,81.23
2018-01-15T08:19:30.590Z,80.85
2018-01-15T08:25:34.881Z,80.98
2018-01-15T08:31:38.517Z,81.07
2018-01-15T08:37:42.823Z,81.07
2018-01-15T08:43:46.479Z,80.74
2018-01-15T08:49:49.937Z,80.29
2018-01-15T08:55:53.427Z,80.10
2018-01-15T09:01:56.987Z,80.56
2018-01-15T09:08:00.654Z,80.29
2018-01-15T09:14:05.208Z,79.77
2018-01-15T09:20:09.525Z,79.45
2018-01-15T09:26:13.019Z,79.54
2018-01-15T09:32:16.509Z,79.46
2018-01-15T09:38:19.992Z,79.54
2018-01-15T09:44:23.607Z,79.20
2018-01-15T09:50:27.127Z,78.99
2018-01-15T09:56:30.673Z,79.02
2018-01-15T10:02:34.152Z,79.18
2018-01-15T10:08:37.654Z,77.69
2018-01-15T10:14:41.981Z,77.76
2018-01-15T10:20:45.450Z,78.06
2018-01-15T10:26:48.981Z,76.98
2018-01-15T10:32:52.462Z,77.64
2018-01-15T10:38:56.374Z,77.54
2018-01-15T10:45:00.151Z,76.85
2018-01-15T10:51:03.755Z,76.66
2018-01-15T10:57:07.269Z,77.39
2018-01-15T11:03:10.792Z,76.76
2018-01-15T11:09:14.276Z,77.55
2018-01-15T11:15:17.871Z,78.09
2018-01-15T11:21:21.473Z,78.88
2018-01-15T11:27:25.294Z,78.88
2018-01-15T11:33:28.857Z,78.39
2018-01-15T11:39:33.085Z,79.01
2018-01-15T11:45:36.615Z,79.32
2018-01-15T11:51:40.095Z,78.76
2018-01-15T11:57:43.586Z,78.88
2018-01-15T12:03:47.837Z,78.41
2018-01-15T12:09:51.286Z,77.65
2018-01-15T12:15:54.757Z,77.29
2018-01-15T12:21:59.232Z,77.29
2018-01-15T12:28:02.779Z,77.43
2018-01-15T12:34:06.372Z,77.60
2018-01-15T12:40:09.991Z,76.76
2018-01-15T12:46:13.468Z,77.77
2018-01-15T12:52:17.733Z,77.48
2018-01-15T12:58:21.945Z,77.63
2018-01-15T13:04:25.430Z,77.86
2018-01-15T13:10:29.328Z,77.89
2018-01-15T13:16:32.848Z,78.17
2018-01-15T13:22:36.348Z,78.02
2018-01-15T13:28:40.100Z,78.04
2018-01-15T13:34:44.346Z,78.56
2018-01-15T13:40:48.617Z,79.10
2018-01-15T13:46:52.149Z,78.75
2018-01-15T13:52:55.839Z,78.72
2018-01-15T13:58:59.391Z,79.10
2018-01-15T14:05:02.876Z,78.87
2018-01-15T14:11:06.570Z,79.40
2018-01-15T14:17:10.029Z,79.66
2018-01-15T14:23:13.492Z,80.15
2018-01-15T14:29:18.178Z,80.13
2018-01-15T14:35:21.645Z,80.37
2018-01-15T14:41:25.613Z,80.05
2018-01-15T14:47:29.223Z,80.24
2018-01-15T14:53:32.767Z,80.35
2018-01-15T14:59:36.227Z,80.95
2018-01-15T15:05:40.480Z,81.40
2018-01-15T15:11:43.937Z,81.09
2018-01-15T15:17:47.414Z,81.52
2018-01-15T15:23:50.895Z,81.68
2018-01-15T15:29:55.355Z,81.81
2018-01-15T15:35:59.092Z,82.01
2018-01-15T15:42:02.647Z,82.15
2018-01-15T15:48:06.296Z,82.24
2018-01-15T15:54:09.825Z,81.99
2018-01-15T16:00:14.194Z,82.32
2018-01-15T16:06:18.477Z,82.46
2018-01-15T16:12:21.948Z,82.22
2018-01-15T16:18:26.277Z,82.13
2018-01-15T16:24:30.635Z,82.23
2018-01-15T16:30:34.436Z,82.17
2018-01-15T16:36:37.949Z,81.89
2018-01-15T16:42:41.426Z,81.97
2018-01-15T16:48:44.929Z,81.79
2018-01-15T16:54:48.442Z,82.47
2018-01-15T17:00:52.682Z,82.37
2018-01-15T17:06:56.198Z,82.75
2018-01-15T17:13:00.595Z,82.27
2018-01-15T17:19:04.059Z,82.41
2018-01-15T17:25:07.679Z,82.11
2018-01-15T17:31:11.201Z,82.39
2018-01-15T17:37:14.761Z,82.31
2018-01-15T17:43:19.045Z,82.25
2018-01-15T17:49:24.095Z,82.20
2018-01-15T17:55:27.667Z,82.41
2018-01-15T18:01:31.223Z,82.39
2018-01-15T18:07:34.713Z,82.84
2018-01-15T18:13:38.248Z,83.65
2018-01-15T18:19:42.536Z,83.63
2018-01-15T18:25:47.006Z,84.13
2018-01-15T18:31:51.221Z,83.81
2018-01-15T18:37:54.826Z,84.24
2018-01-15T18:43:59.113Z,84.05
2018-01-15T18:50:02.583Z,83.58
2018-01-15T18:56:06.053Z,83.49
2018-01-15T19:02:09.543Z,83.57
2018-01-15T19:08:13.018Z,83.71
2018-01-15T19:14:17.260Z,83.97
2018-01-15T19:20:20.759Z,83.64
2018-01-15T19:26:24.264Z,84.02
2018-01-15T19:32:27.741Z,84.10
2018-01-15T19:38:33.246Z,84.41
2018-01-15T19:44:42.983Z,84.70
2018-01-15T19:57:27.177Z,85.21
2018-01-15T20:03:36.088Z,86.10
2018-01-15T20:09:45.830Z,86.59
2018-01-15T20:15:49.292Z,86.66
2018-01-15T20:21:53.024Z,86.78
2018-01-15T20:27:57.945Z,86.98
2018-01-15T20:34:01.416Z,87.01
2018-01-15T20:40:04.908Z,86.91
2018-01-15T20:46:08.440Z,87.26
2018-01-15T20:52:11.909Z,87.57
2018-01-15T20:58:16.290Z,88.45
2018-01-15T21:04:20.771Z,88.95
2018-01-15T21:10:25.416Z,88.98
2018-01-15T21:16:29.007Z,88.71
2018-01-15T21:22:32.447Z,88.82
2018-01-15T21:28:35.947Z,88.42
2018-01-15T21:34:39.428Z,88.84
2018-01-15T21:40:42.885Z,88.75
2018-01-15T21:46:46.490Z,88.34
2018-01-15T21:52:50.063Z,88.25
2018-01-15T21:58:54.996Z,88.42
2018-01-15T22:04:58.555Z,88.50
2018-01-15T22:11:01.987Z,88.44
2018-01-15T22:17:05.806Z,88.00
2018-01-15T22:23:09.591Z,87.28
2018-01-15T22:29:13.109Z,86.76
2018-01-15T22:35:16.643Z,86.50
2018-01-15T22:41:20.135Z,86.56
2018-01-15T22:47:23.700Z,86.96
2018-01-15T22:53:28.027Z,86.66
2018-01-15T22:59:31.559Z,86.55
2018-01-15T23:05:35.005Z,85.84
2018-01-15T23:11:38.444Z,85.52
2018-01-15T23:17:42.694Z,85.82
2018-01-15T23:23:46.145Z,86.06
2018-01-15T23:29:49.609Z,86.14
2018-01-15T23:35:54.094Z,85.90
2018-01-15T23:41:57.957Z,86.05
2018-01-15T23:48:02.265Z,86.59
2018-01-15T23:54:05.823Z,86.31
